createdAt,value
2022-11-05T00:00:33.152Z,13.60
2022-11-05T00:01:33.196Z,13.61
2022-11-05T00:02:33.123Z,13.62
2022-11-05T00:03:33.246Z,13.61
2022-11-05T00:04:33.109Z,13.60
2022-11-05T00:05:33.089Z,13.61
2022-11-05T00:06:33.073Z,13.61
2022-11-05T00:07:33.060Z,13.61
2022-11-05T00:08:33.067Z,13.58
2022-11-05T00:09:33.034Z,13.60
2022-11-05T00:10:33.019Z,13.60
2022-11-05T00:11:33.009Z,13.58
2022-11-05T00:12:32.995Z,13.58
2022-11-05T00:13:32.983Z,13.60
2022-11-05T00:14:32.969Z,13.58
2022-11-05T00:15:32.957Z,13.60
2022-11-05T00:16:32.945Z,13.58
2022-11-05T00:17:32.933Z,13.58
2022-11-05T00:18:32.914Z,13.58
2022-11-05T00:19:32.929Z,13.60
2022-11-05T00:20:32.889Z,13.60
2022-11-05T00:21:32.885Z,13.60
2022-11-05T00:22:32.864Z,13.61
2022-11-05T00:23:32.852Z,13.62
2022-11-05T00:24:32.837Z,13.60
2022-11-05T00:25:32.825Z,13.60
2022-11-05T00:26:32.813Z,13.60
2022-11-05T00:27:32.800Z,13.60
2022-11-05T00:28:32.786Z,13.61
2022-11-05T00:29:32.775Z,13.61
2022-11-05T00:30:32.760Z,13.60
2022-11-05T00:31:32.750Z,13.60
2022-11-05T00:32:32.735Z,13.61
2022-11-05T00:33:32.720Z,13.60
2022-11-05T00:34:32.710Z,13.58
2022-11-05T00:35:32.721Z,13.58
2022-11-05T00:36:32.681Z,13.60
2022-11-05T00:37:32.669Z,13.60
2022-11-05T00:38:32.654Z,13.60
2022-11-05T00:39:32.644Z,13.60
2022-11-05T00:40:32.627Z,13.60
2022-11-05T00:41:32.615Z,13.58
2022-11-05T00:42:32.600Z,13.60
2022-11-05T00:43:32.593Z,13.60
2022-11-05T00:44:32.575Z,13.60
2022-11-05T00:45:32.563Z,13.60
2022-11-05T00:46:32.548Z,13.58
2022-11-05T00:47:32.537Z,13.60
2022-11-05T00:48:32.521Z,13.61
2022-11-05T00:49:32.512Z,13.60
2022-11-05T00:50:32.496Z,13.60
2022-11-05T00:51:32.505Z,13.60
2022-11-05T00:52:32.468Z,13.61
2022-11-05T00:53:32.456Z,13.60
2022-11-05T00:54:32.441Z,13.58
2022-11-05T00:55:32.429Z,13.61
2022-11-05T00:56:32.416Z,13.58
2022-11-05T00:57:32.404Z,13.58
2022-11-05T00:58:32.393Z,13.58
2022-11-05T00:59:32.378Z,13.60
2022-11-05T01:00:32.380Z,13.61
2022-11-05T01:01:32.492Z,13.58
2022-11-05T01:02:32.469Z,13.58
2022-11-05T01:03:32.324Z,13.60
2022-11-05T01:04:32.310Z,13.60
2022-11-05T01:05:32.297Z,13.60
2022-11-05T01:06:32.285Z,13.60
2022-11-05T01:07:32.345Z,13.60
2022-11-05T01:08:32.258Z,13.60
2022-11-05T01:09:32.243Z,13.60
2022-11-05T01:10:32.231Z,13.58
2022-11-05T01:11:32.216Z,13.58
2022-11-05T01:12:32.203Z,13.58
2022-11-05T01:13:32.190Z,13.58
2022-11-05T01:14:32.179Z,13.60
2022-11-05T01:15:32.179Z,13.58
2022-11-05T01:16:32.153Z,13.60
2022-11-05T01:17:32.137Z,13.60
2022-11-05T01:18:32.125Z,13.58
2022-11-05T01:19:32.111Z,13.58
2022-11-05T01:20:32.098Z,13.58
2022-11-05T01:21:32.084Z,13.58
2022-11-05T01:22:32.077Z,13.58
2022-11-05T01:23:32.080Z,13.57
2022-11-05T01:24:32.045Z,13.58
2022-11-05T01:25:32.032Z,13.60
2022-11-05T01:26:32.019Z,13.58
2022-11-05T01:27:32.006Z,13.57
2022-11-05T01:28:32.042Z,13.58
2022-11-05T01:29:31.978Z,13.58
2022-11-05T01:30:31.968Z,13.58
2022-11-05T01:31:31.951Z,13.58
2022-11-05T01:32:31.941Z,13.57
2022-11-05T01:33:31.930Z,13.60
2022-11-05T01:34:31.918Z,13.60
2022-11-05T01:35:31.903Z,13.55
2022-11-05T01:36:31.888Z,13.60
2022-11-05T01:37:31.874Z,13.57
2022-11-05T01:38:31.861Z,13.58
2022-11-05T01:39:31.872Z,13.57
2022-11-05T01:40:31.837Z,13.58
2022-11-05T01:41:31.822Z,13.60
2022-11-05T01:42:31.811Z,13.60
2022-11-05T01:43:31.796Z,13.58
2022-11-05T01:44:31.783Z,13.57
2022-11-05T01:45:31.769Z,13.57
2022-11-05T01:46:31.756Z,13.57
2022-11-05T01:47:31.741Z,13.57
2022-11-05T01:48:31.729Z,13.58
2022-11-05T01:49:31.715Z,13.55
2022-11-05T01:50:31.704Z,13.57
2022-11-05T01:51:31.689Z,13.57
2022-11-05T01:52:31.680Z,13.57
2022-11-05T01:53:31.663Z,13.57
2022-11-05T01:54:31.648Z,13.58
2022-11-05T01:55:31.658Z,13.57
2022-11-05T01:56:31.622Z,13.57
2022-11-05T01:57:31.606Z,13.55
2022-11-05T01:58:31.594Z,13.57
2022-11-05T01:59:31.581Z,13.57
2022-11-05T02:00:31.569Z,13.58
2022-11-05T02:01:31.697Z,13.57
2022-11-05T02:02:31.632Z,13.57
2022-11-05T02:03:31.534Z,13.57
2022-11-05T02:04:31.519Z,13.58
2022-11-05T02:05:31.502Z,13.60
2022-11-05T02:06:31.490Z,13.58
2022-11-05T02:07:31.476Z,13.58
2022-11-05T02:08:31.465Z,13.55
2022-11-05T02:09:31.449Z,13.57
2022-11-05T02:10:31.438Z,13.57
2022-11-05T02:11:31.538Z,13.55
2022-11-05T02:12:31.409Z,13.55
2022-11-05T02:13:31.396Z,13.55
2022-11-05T02:14:31.383Z,13.55
2022-11-05T02:15:31.368Z,13.57
2022-11-05T02:16:31.356Z,13.57
2022-11-05T02:17:31.342Z,13.55
2022-11-05T02:18:31.330Z,13.57
2022-11-05T02:19:31.322Z,13.55
2022-11-05T02:20:31.302Z,13.55
2022-11-05T02:21:31.289Z,13.55
2022-11-05T02:22:31.276Z,13.57
2022-11-05T02:23:31.265Z,13.57
2022-11-05T02:24:31.251Z,13.57
2022-11-05T02:25:31.238Z,13.58
2022-11-05T02:26:31.224Z,13.57
2022-11-05T02:27:31.233Z,13.55
2022-11-05T02:28:31.201Z,13.55
2022-11-05T02:29:31.184Z,13.55
2022-11-05T02:30:31.171Z,13.55
2022-11-05T02:31:31.156Z,13.57
2022-11-05T02:32:31.144Z,13.55
2022-11-05T02:33:31.134Z,13.57
2022-11-05T02:34:31.121Z,13.57
2022-11-05T02:35:31.105Z,13.54
2022-11-05T02:36:31.093Z,13.53
2022-11-05T02:37:31.079Z,13.55
2022-11-05T02:38:31.066Z,13.58
2022-11-05T02:39:31.053Z,13.57
2022-11-05T02:40:31.041Z,13.57
2022-11-05T02:41:31.025Z,13.57
2022-11-05T02:42:31.013Z,13.58
2022-11-05T02:43:31.026Z,13.55
2022-11-05T02:44:30.991Z,13.55
2022-11-05T02:45:30.973Z,13.55
2022-11-05T02:46:30.962Z,13.55
2022-11-05T02:47:30.948Z,13.57
2022-11-05T02:48:30.934Z,13.55
2022-11-05T02:49:30.921Z,13.55
2022-11-05T02:50:30.909Z,13.55
2022-11-05T02:51:30.894Z,13.55
2022-11-05T02:52:30.888Z,13.54
2022-11-05T02:53:30.870Z,13.55
2022-11-05T02:54:30.855Z,13.57
2022-11-05T02:55:30.840Z,13.57
2022-11-05T02:56:30.829Z,13.57
2022-11-05T02:57:30.814Z,13.55
2022-11-05T02:58:30.805Z,13.57
2022-11-05T02:59:30.812Z,13.55
2022-11-05T03:00:30.789Z,13.57
2022-11-05T03:01:30.849Z,13.54
2022-11-05T03:02:30.946Z,13.55
2022-11-05T03:03:30.736Z,13.57
2022-11-05T03:04:30.723Z,13.54
2022-11-05T03:05:30.709Z,13.57
2022-11-05T03:06:30.698Z,13.57
2022-11-05T03:07:30.684Z,13.55
2022-11-05T03:08:30.673Z,13.55
2022-11-05T03:09:30.657Z,13.58
2022-11-05T03:10:30.646Z,13.55
2022-11-05T03:11:30.630Z,13.57
2022-11-05T03:12:30.619Z,13.55
2022-11-05T03:13:30.605Z,13.57
2022-11-05T03:14:30.592Z,13.55
2022-11-05T03:15:30.603Z,13.55
2022-11-05T03:16:30.568Z,13.57
2022-11-05T03:17:30.553Z,13.57
2022-11-05T03:18:30.541Z,13.55
2022-11-05T03:19:30.532Z,13.55
2022-11-05T03:20:30.514Z,13.54
2022-11-05T03:21:30.500Z,13.57
2022-11-05T03:22:30.488Z,13.57
2022-11-05T03:23:30.474Z,13.57
2022-11-05T03:24:30.463Z,13.55
2022-11-05T03:25:30.449Z,13.55
2022-11-05T03:26:30.438Z,13.55
2022-11-05T03:27:30.423Z,13.57
2022-11-05T03:28:30.410Z,13.55
2022-11-05T03:29:30.397Z,13.55
2022-11-05T03:30:30.386Z,13.55
2022-11-05T03:31:30.493Z,13.55
2022-11-05T03:32:30.358Z,13.54
2022-11-05T03:33:30.343Z,13.55
2022-11-05T03:34:30.331Z,13.55
2022-11-05T03:35:30.318Z,13.57
2022-11-05T03:36:30.304Z,13.54
2022-11-05T03:37:30.293Z,13.54
2022-11-05T03:38:30.281Z,13.55
2022-11-05T03:39:30.301Z,13.55
2022-11-05T03:40:30.259Z,13.54
2022-11-05T03:41:30.238Z,13.55
2022-11-05T03:42:30.226Z,13.55
2022-11-05T03:43:30.226Z,13.55
2022-11-05T03:44:30.206Z,13.55
2022-11-05T03:45:30.189Z,13.57
2022-11-05T03:46:30.173Z,13.58
2022-11-05T03:47:30.186Z,13.57
2022-11-05T03:48:30.238Z,13.57
2022-11-05T03:49:30.132Z,13.57
2022-11-05T03:50:30.123Z,13.57
2022-11-05T03:51:30.116Z,13.54
2022-11-05T03:52:30.097Z,13.57
2022-11-05T03:53:30.092Z,13.57
2022-11-05T03:54:30.070Z,13.57
2022-11-05T03:55:30.056Z,13.57
2022-11-05T03:56:30.044Z,13.57
2022-11-05T03:57:30.039Z,13.55
2022-11-05T03:58:30.017Z,13.54
2022-11-05T03:59:30.003Z,13.54
2022-11-05T04:00:29.992Z,13.55
2022-11-05T04:01:30.100Z,13.57
2022-11-05T04:02:30.128Z,13.55
2022-11-05T04:03:29.977Z,13.55
2022-11-05T04:04:29.940Z,13.55
2022-11-05T04:05:29.924Z,13.54
2022-11-05T04:06:29.913Z,13.55
2022-11-05T04:07:29.900Z,13.57
2022-11-05T04:08:29.888Z,13.57
2022-11-05T04:09:29.874Z,13.55
2022-11-05T04:10:29.864Z,13.57
2022-11-05T04:11:29.848Z,13.57
2022-11-05T04:12:29.835Z,13.58
2022-11-05T04:13:29.820Z,13.57
2022-11-05T04:14:29.812Z,13.55
2022-11-05T04:15:29.798Z,13.55
2022-11-05T04:16:29.785Z,13.57
2022-11-05T04:17:29.769Z,13.55
2022-11-05T04:18:29.758Z,13.55
2022-11-05T04:19:29.767Z,13.54
2022-11-05T04:20:29.731Z,13.55
2022-11-05T04:21:29.717Z,13.54
2022-11-05T04:22:29.706Z,13.54
2022-11-05T04:23:29.691Z,13.55
2022-11-05T04:24:29.680Z,13.55
2022-11-05T04:25:29.666Z,13.57
2022-11-05T04:26:29.654Z,13.55
2022-11-05T04:27:29.642Z,13.55
2022-11-05T04:28:29.628Z,13.57
2022-11-05T04:29:29.618Z,13.55
2022-11-05T04:30:29.602Z,13.55
2022-11-05T04:31:29.591Z,13.54
2022-11-05T04:32:29.576Z,13.55
2022-11-05T04:33:29.570Z,13.57
2022-11-05T04:34:29.549Z,13.55
2022-11-05T04:35:29.665Z,13.54
2022-11-05T04:36:29.523Z,13.55
2022-11-05T04:37:29.509Z,13.55
2022-11-05T04:38:29.497Z,13.55
2022-11-05T04:39:29.486Z,13.55
2022-11-05T04:40:29.478Z,13.55
2022-11-05T04:41:29.455Z,13.55
2022-11-05T04:42:29.449Z,13.54
2022-11-05T04:43:29.436Z,13.55
2022-11-05T04:44:29.417Z,13.55
2022-11-05T04:45:29.411Z,13.57
2022-11-05T04:46:29.393Z,13.55
2022-11-05T04:47:29.376Z,13.54
2022-11-05T04:48:29.365Z,13.55
2022-11-05T04:49:29.356Z,13.57
2022-11-05T04:50:29.341Z,13.55
2022-11-05T04:51:29.351Z,13.54
2022-11-05T04:52:29.313Z,13.53
2022-11-05T04:53:29.299Z,13.55
2022-11-05T04:54:29.287Z,13.55
2022-11-05T04:55:29.273Z,13.53
2022-11-05T04:56:29.263Z,13.53
2022-11-05T04:57:29.247Z,13.55
2022-11-05T04:58:29.233Z,13.54
2022-11-05T04:59:29.219Z,13.54
2022-11-05T05:00:29.382Z,13.53
2022-11-05T05:01:29.296Z,13.54
2022-11-05T05:02:29.189Z,13.54
2022-11-05T05:03:29.169Z,13.53
2022-11-05T05:04:29.157Z,13.53
2022-11-05T05:05:29.143Z,13.51
2022-11-05T05:06:29.131Z,13.53
2022-11-05T05:07:29.137Z,13.54
2022-11-05T05:08:29.103Z,13.51
2022-11-05T05:09:29.090Z,13.51
2022-11-05T05:10:29.080Z,13.54
2022-11-05T05:11:29.068Z,13.53
2022-11-05T05:12:29.052Z,13.51
2022-11-05T05:13:29.037Z,13.50
2022-11-05T05:14:29.026Z,13.51
2022-11-05T05:15:29.013Z,13.53
2022-11-05T05:16:28.999Z,13.53
2022-11-05T05:17:28.984Z,13.53
2022-11-05T05:18:28.974Z,13.53
2022-11-05T05:19:28.962Z,13.51
2022-11-05T05:20:28.947Z,13.53
2022-11-05T05:21:28.933Z,13.50
2022-11-05T05:22:28.923Z,13.53
2022-11-05T05:23:28.933Z,13.53
2022-11-05T05:24:28.893Z,13.54
2022-11-05T05:25:28.882Z,13.51
2022-11-05T05:26:28.868Z,13.51
2022-11-05T05:27:28.856Z,13.51
2022-11-05T05:28:28.844Z,13.51
2022-11-05T05:29:28.832Z,13.51
2022-11-05T05:30:28.820Z,13.50
2022-11-05T05:31:28.804Z,13.50
2022-11-05T05:32:28.791Z,13.50
2022-11-05T05:33:28.777Z,13.50
2022-11-05T05:34:28.763Z,13.48
2022-11-05T05:35:28.754Z,13.48
2022-11-05T05:36:28.738Z,13.50
2022-11-05T05:37:28.726Z,13.50
2022-11-05T05:38:28.712Z,13.48
2022-11-05T05:39:28.725Z,13.48
2022-11-05T05:40:28.685Z,13.48
2022-11-05T05:41:28.672Z,13.50
2022-11-05T05:42:28.662Z,13.48
2022-11-05T05:43:28.647Z,13.48
2022-11-05T05:44:28.631Z,13.48
2022-11-05T05:45:28.621Z,13.50
2022-11-05T05:46:28.605Z,13.50
2022-11-05T05:47:28.594Z,13.46
2022-11-05T05:48:28.580Z,13.50
2022-11-05T05:49:28.571Z,13.50
2022-11-05T05:50:28.554Z,13.48
2022-11-05T05:51:28.543Z,13.46
2022-11-05T05:52:28.527Z,13.48
2022-11-05T05:53:28.517Z,13.45
2022-11-05T05:54:32.320Z,13.45
2022-11-05T05:55:28.517Z,13.45
2022-11-05T05:56:28.477Z,13.45
2022-11-05T05:57:28.467Z,13.42
2022-11-05T05:58:28.450Z,13.43
2022-11-05T05:59:28.450Z,13.40
2022-11-05T06:00:28.424Z,13.43
2022-11-05T06:01:28.483Z,13.42
2022-11-05T06:02:28.586Z,13.43
2022-11-05T06:03:28.387Z,13.43
2022-11-05T06:04:28.373Z,13.42
2022-11-05T06:05:28.361Z,13.42
2022-11-05T06:06:28.346Z,13.40
2022-11-05T06:07:31.789Z,13.40
2022-11-05T06:08:29.363Z,13.39
2022-11-05T06:09:28.309Z,13.37
2022-11-05T06:10:28.393Z,13.39
2022-11-05T06:11:28.405Z,13.39
2022-11-05T06:12:28.269Z,13.37
2022-11-05T06:13:28.256Z,13.39
2022-11-05T06:14:28.242Z,13.39
2022-11-05T06:15:31.817Z,13.39
2022-11-05T06:16:29.256Z,13.37
2022-11-05T06:17:28.205Z,13.39
2022-11-05T06:18:28.191Z,13.40
2022-11-05T06:19:28.180Z,13.40
2022-11-05T06:20:28.168Z,13.40
2022-11-05T06:21:28.153Z,13.40
2022-11-05T06:22:28.138Z,13.42
2022-11-05T06:23:28.127Z,13.40
2022-11-05T06:24:28.115Z,13.40
2022-11-05T06:25:28.100Z,13.40
2022-11-05T06:26:28.086Z,13.40
2022-11-05T06:27:28.098Z,13.40
2022-11-05T06:28:28.060Z,13.40
2022-11-05T06:29:28.051Z,13.42
2022-11-05T06:30:28.033Z,13.43
2022-11-05T06:31:28.022Z,13.42
2022-11-05T06:32:28.008Z,13.42
2022-11-05T06:33:28.000Z,13.43
2022-11-05T06:34:27.980Z,13.40
2022-11-05T06:35:27.969Z,13.40
2022-11-05T06:36:27.961Z,13.42
2022-11-05T06:37:27.945Z,13.40
2022-11-05T06:38:27.931Z,13.40
2022-11-05T06:39:27.916Z,13.40
2022-11-05T06:40:27.905Z,13.40
2022-11-05T06:41:27.897Z,13.42
2022-11-05T06:42:27.876Z,13.42
2022-11-05T06:43:27.891Z,13.42
2022-11-05T06:44:27.854Z,13.40
2022-11-05T06:45:27.840Z,13.40
2022-11-05T06:46:27.824Z,13.40
2022-11-05T06:47:27.812Z,13.40
2022-11-05T06:48:27.814Z,13.40
2022-11-05T06:49:27.786Z,13.42
2022-11-05T06:50:27.774Z,13.40
2022-11-05T06:51:27.761Z,13.42
2022-11-05T06:52:27.745Z,13.42
2022-11-05T06:53:27.742Z,13.42
2022-11-05T06:54:27.719Z,13.42
2022-11-05T06:55:27.709Z,13.40
2022-11-05T06:56:27.698Z,13.43
2022-11-05T06:57:27.682Z,13.43
2022-11-05T06:58:27.670Z,13.43
2022-11-05T06:59:27.680Z,13.42
2022-11-05T07:00:27.648Z,13.45
2022-11-05T07:01:27.837Z,13.46
2022-11-05T07:02:27.709Z,13.43
2022-11-05T07:03:27.603Z,13.43
2022-11-05T07:04:27.589Z,13.43
2022-11-05T07:05:27.577Z,13.45
2022-11-05T07:06:27.564Z,13.43
2022-11-05T07:07:27.554Z,13.43
2022-11-05T07:08:27.537Z,13.43
2022-11-05T07:09:27.523Z,13.43
2022-11-05T07:10:27.512Z,13.42
2022-11-05T07:11:27.498Z,13.43
2022-11-05T07:12:27.484Z,13.43
2022-11-05T07:13:27.476Z,13.43
2022-11-05T07:14:27.458Z,13.45
2022-11-05T07:15:27.569Z,13.43
2022-11-05T07:16:27.432Z,13.45
2022-11-05T07:17:27.421Z,13.43
2022-11-05T07:18:27.410Z,13.43
2022-11-05T07:19:27.396Z,13.43
2022-11-05T07:20:33.268Z,13.43
2022-11-05T07:21:28.407Z,13.45
2022-11-05T07:22:27.352Z,13.43
2022-11-05T07:23:27.341Z,13.43
2022-11-05T07:24:27.327Z,13.43
2022-11-05T07:25:27.316Z,13.46
2022-11-05T07:26:31.871Z,13.46
2022-11-05T07:27:28.332Z,13.45
2022-11-05T07:28:27.274Z,13.48
2022-11-05T07:29:27.263Z,13.46
2022-11-05T07:30:27.248Z,13.46
2022-11-05T07:31:27.324Z,13.45
2022-11-05T07:32:27.224Z,13.48
2022-11-05T07:33:30.077Z,13.45
2022-11-05T07:34:27.197Z,13.45
2022-11-05T07:35:27.187Z,13.45
2022-11-05T07:36:27.171Z,13.46
2022-11-05T07:37:27.162Z,13.45
2022-11-05T07:38:27.145Z,13.45
2022-11-05T07:39:27.135Z,13.46
2022-11-05T07:40:27.165Z,13.46
2022-11-05T07:41:27.112Z,13.46
2022-11-05T07:42:27.096Z,13.45
2022-11-05T07:43:27.084Z,13.43
2022-11-05T07:44:27.067Z,13.46
2022-11-05T07:45:27.058Z,13.45
2022-11-05T07:46:27.042Z,13.45
2022-11-05T07:47:27.055Z,13.45
2022-11-05T07:48:27.013Z,13.48
2022-11-05T07:49:27.005Z,13.46
2022-11-05T07:50:27.147Z,13.48
2022-11-05T07:51:26.977Z,13.46
2022-11-05T07:52:26.963Z,13.48
2022-11-05T07:53:26.952Z,13.48
2022-11-05T07:54:26.939Z,13.48
2022-11-05T07:55:26.921Z,13.48
2022-11-05T07:56:26.913Z,13.48
2022-11-05T07:57:26.899Z,13.48
2022-11-05T07:58:26.884Z,13.46
2022-11-05T07:59:26.873Z,13.46
2022-11-05T08:00:26.901Z,13.46
2022-11-05T08:01:27.133Z,13.50
2022-11-05T08:02:27.149Z,13.48
2022-11-05T08:03:26.982Z,13.46
2022-11-05T08:04:26.806Z,13.51
2022-11-05T08:05:26.792Z,13.53
2022-11-05T08:06:26.780Z,13.51
2022-11-05T08:07:26.769Z,13.50
2022-11-05T08:08:26.755Z,13.51
2022-11-05T08:09:26.743Z,13.51
2022-11-05T08:10:26.733Z,13.53
2022-11-05T08:11:26.716Z,13.51
2022-11-05T08:12:26.701Z,13.46
2022-11-05T08:13:26.691Z,13.50
2022-11-05T08:14:26.680Z,13.50
2022-11-05T08:15:26.663Z,13.48
2022-11-05T08:16:26.649Z,13.50
2022-11-05T08:17:26.637Z,13.50
2022-11-05T08:18:26.622Z,13.48
2022-11-05T08:19:26.633Z,13.48
2022-11-05T08:20:26.600Z,13.50
2022-11-05T08:21:26.584Z,13.50
2022-11-05T08:22:26.567Z,13.53
2022-11-05T08:23:26.556Z,13.51
2022-11-05T08:24:26.542Z,13.51
2022-11-05T08:25:26.531Z,13.51
2022-11-05T08:26:26.518Z,13.50
2022-11-05T08:27:26.504Z,13.50
2022-11-05T08:28:26.489Z,13.51
2022-11-05T08:29:26.488Z,13.51
2022-11-05T08:30:26.461Z,13.51
2022-11-05T08:31:26.451Z,13.51
2022-11-05T08:32:26.437Z,13.53
2022-11-05T08:33:26.426Z,13.50
2022-11-05T08:34:26.410Z,13.48
2022-11-05T08:35:26.423Z,13.51
2022-11-05T08:36:26.384Z,13.50
2022-11-05T08:37:26.373Z,13.50
2022-11-05T08:38:26.359Z,13.50
2022-11-05T08:39:26.347Z,13.51
2022-11-05T08:40:26.331Z,13.51
2022-11-05T08:41:26.321Z,13.51
2022-11-05T08:42:26.305Z,13.51
2022-11-05T08:43:26.294Z,13.50
2022-11-05T08:44:26.281Z,13.51
2022-11-05T08:45:26.267Z,13.50
2022-11-05T08:46:26.253Z,13.50
2022-11-05T08:47:26.242Z,13.50
2022-11-05T08:48:26.229Z,13.51
2022-11-05T08:49:26.216Z,13.51
2022-11-05T08:50:26.201Z,13.50
2022-11-05T08:51:26.212Z,13.50
2022-11-05T08:52:26.176Z,13.50
2022-11-05T08:53:26.164Z,13.51
2022-11-05T08:54:26.150Z,13.51
2022-11-05T08:55:26.150Z,13.53
2022-11-05T08:56:26.125Z,13.53
2022-11-05T08:57:26.113Z,13.53
2022-11-05T08:58:26.100Z,13.51
2022-11-05T08:59:26.086Z,13.53
2022-11-05T09:00:26.078Z,13.53
2022-11-05T09:01:26.225Z,13.54
2022-11-05T09:02:26.221Z,13.54
2022-11-05T09:03:26.034Z,13.53
2022-11-05T09:04:26.020Z,13.53
2022-11-05T09:05:26.008Z,13.54
2022-11-05T09:06:25.994Z,13.55
2022-11-05T09:07:26.004Z,13.54
2022-11-05T09:08:25.967Z,13.54
2022-11-05T09:09:25.958Z,13.51
2022-11-05T09:10:25.943Z,13.54
2022-11-05T09:11:43.023Z,13.54
2022-11-05T09:12:26.957Z,13.55
2022-11-05T09:13:26.526Z,13.55
2022-11-05T09:14:25.891Z,13.55
2022-11-05T09:15:25.874Z,13.55
2022-11-05T09:16:25.862Z,13.54
2022-11-05T09:17:25.851Z,13.55
2022-11-05T09:18:25.837Z,13.55
2022-11-05T09:19:25.825Z,13.55
2022-11-05T09:20:25.810Z,13.55
2022-11-05T09:21:25.801Z,13.58
2022-11-05T09:22:25.786Z,13.57
2022-11-05T09:23:25.798Z,13.58
2022-11-05T09:24:25.761Z,13.57
2022-11-05T09:25:25.748Z,13.58
2022-11-05T09:26:25.734Z,13.58
2022-11-05T09:27:25.724Z,13.60
2022-11-05T09:28:25.704Z,13.58
2022-11-05T09:29:25.696Z,13.60
2022-11-05T09:30:25.679Z,13.60
2022-11-05T09:31:25.669Z,13.60
2022-11-05T09:32:25.655Z,13.61
2022-11-05T09:33:25.648Z,13.60
2022-11-05T09:34:25.631Z,13.60
2022-11-05T09:35:25.619Z,13.60
2022-11-05T09:36:25.605Z,13.58
2022-11-05T09:37:25.595Z,13.60
2022-11-05T09:38:25.574Z,13.60
2022-11-05T09:39:25.590Z,13.61
2022-11-05T09:40:25.554Z,13.60
2022-11-05T09:41:25.539Z,13.62
2022-11-05T09:42:25.530Z,13.60
2022-11-05T09:43:31.276Z,13.61
2022-11-05T09:44:26.539Z,13.61
2022-11-05T09:45:25.536Z,13.61
2022-11-05T09:46:25.484Z,13.60
2022-11-05T09:47:25.460Z,13.61
2022-11-05T09:48:25.450Z,13.61
2022-11-05T09:49:25.435Z,13.58
2022-11-05T09:50:25.421Z,13.60
2022-11-05T09:51:25.409Z,13.61
2022-11-05T09:52:25.399Z,13.61
2022-11-05T09:53:25.386Z,13.60
2022-11-05T09:54:25.373Z,13.60
2022-11-05T09:55:25.381Z,13.60
2022-11-05T09:56:25.352Z,13.60
2022-11-05T09:57:25.334Z,13.58
2022-11-05T09:58:28.723Z,13.60
2022-11-05T09:59:25.305Z,13.60
2022-11-05T10:00:25.293Z,13.58
2022-11-05T10:01:25.458Z,13.60
2022-11-05T10:02:25.316Z,13.60
2022-11-05T10:03:25.254Z,13.61
2022-11-05T10:04:25.243Z,13.58
2022-11-05T10:05:25.304Z,13.58
2022-11-05T10:06:25.215Z,13.58
2022-11-05T10:07:25.201Z,13.60
2022-11-05T10:08:25.191Z,13.62
2022-11-05T10:09:25.175Z,13.62
2022-11-05T10:10:25.167Z,13.60
2022-11-05T10:11:25.170Z,13.61
2022-11-05T10:12:25.137Z,13.62
2022-11-05T10:13:25.123Z,13.61
2022-11-05T10:14:25.112Z,13.62
2022-11-05T10:15:25.094Z,13.64
2022-11-05T10:16:25.087Z,13.66
2022-11-05T10:17:25.071Z,13.64
2022-11-05T10:18:25.058Z,13.64
2022-11-05T10:19:25.044Z,13.62
2022-11-05T10:20:25.033Z,13.64
2022-11-05T10:21:51.426Z,13.61
2022-11-05T10:22:26.046Z,13.61
2022-11-05T10:23:24.991Z,13.62
2022-11-05T10:24:24.979Z,13.62
2022-11-05T10:25:24.966Z,13.62
2022-11-05T10:26:24.956Z,13.62
2022-11-05T10:27:25.069Z,13.61
2022-11-05T10:28:24.929Z,13.62
2022-11-05T10:29:24.914Z,13.62
2022-11-05T10:30:24.909Z,13.61
2022-11-05T10:31:24.890Z,13.61
2022-11-05T10:32:24.876Z,13.61
2022-11-05T10:33:24.861Z,13.64
2022-11-05T10:34:24.849Z,13.61
2022-11-05T10:35:24.836Z,13.61
2022-11-05T10:36:24.826Z,13.61
2022-11-05T10:37:24.808Z,13.60
2022-11-05T10:38:24.797Z,13.61
2022-11-05T10:39:24.782Z,13.60
2022-11-05T10:40:24.771Z,13.61
2022-11-05T10:41:24.760Z,13.58
2022-11-05T10:42:24.750Z,13.60
2022-11-05T10:43:24.839Z,13.60
2022-11-05T10:44:24.719Z,13.57
2022-11-05T10:45:24.704Z,13.58
2022-11-05T10:46:24.692Z,13.58
2022-11-05T10:47:24.682Z,13.58
2022-11-05T10:48:24.667Z,13.58
2022-11-05T10:49:24.653Z,13.58
2022-11-05T10:50:24.649Z,13.58
2022-11-05T10:51:24.624Z,13.58
2022-11-05T10:52:24.613Z,13.60
2022-11-05T10:53:24.600Z,13.60
2022-11-05T10:54:24.588Z,13.58
2022-11-05T10:55:24.573Z,13.61
2022-11-05T10:56:24.562Z,13.61
2022-11-05T10:57:24.548Z,13.60
2022-11-05T10:58:24.537Z,13.61
2022-11-05T10:59:24.548Z,13.62
2022-11-05T11:00:24.517Z,13.61
2022-11-05T11:01:24.676Z,13.61
2022-11-05T11:02:24.625Z,13.61
2022-11-05T11:03:24.471Z,13.61
2022-11-05T11:04:24.459Z,13.64
2022-11-05T11:05:24.446Z,13.62
2022-11-05T11:06:24.447Z,13.61
2022-11-05T11:07:24.418Z,13.62
2022-11-05T11:08:24.403Z,13.64
2022-11-05T11:09:24.394Z,13.64
2022-11-05T11:10:24.381Z,13.62
2022-11-05T11:11:24.365Z,13.61
2022-11-05T11:12:24.354Z,13.62
2022-11-05T11:13:24.342Z,13.62
2022-11-05T11:14:24.328Z,13.62
2022-11-05T11:15:24.335Z,13.64
2022-11-05T11:16:24.301Z,13.62
2022-11-05T11:17:24.289Z,13.62
2022-11-05T11:18:24.276Z,13.61
2022-11-05T11:19:24.262Z,13.64
2022-11-05T11:20:24.249Z,13.64
2022-11-05T11:21:24.246Z,13.64
2022-11-05T11:22:24.228Z,13.66
2022-11-05T11:23:24.358Z,13.66
2022-11-05T11:24:24.196Z,13.64
2022-11-05T11:25:24.180Z,13.66
2022-11-05T11:26:24.176Z,13.68
2022-11-05T11:27:24.155Z,13.64
2022-11-05T11:28:24.144Z,13.68
2022-11-05T11:29:24.130Z,13.68
2022-11-05T11:30:24.117Z,13.68
2022-11-05T11:31:24.133Z,13.69
2022-11-05T11:32:24.091Z,13.69
2022-11-05T11:33:24.085Z,13.68
2022-11-05T11:34:24.065Z,13.69
2022-11-05T11:35:24.050Z,13.68
2022-11-05T11:36:24.038Z,13.66
2022-11-05T11:37:24.025Z,13.68
2022-11-05T11:38:24.011Z,13.66
2022-11-05T11:39:23.997Z,13.66
2022-11-05T11:40:24.018Z,13.68
2022-11-05T11:41:23.973Z,13.66
2022-11-05T11:42:23.963Z,13.66
2022-11-05T11:43:23.944Z,13.68
2022-11-05T11:44:23.936Z,13.69
2022-11-05T11:45:23.920Z,13.66
2022-11-05T11:46:23.906Z,13.66
2022-11-05T11:47:23.917Z,13.68
2022-11-05T11:48:23.882Z,13.69
2022-11-05T11:49:23.868Z,13.68
2022-11-05T11:50:23.856Z,13.66
2022-11-05T11:51:23.841Z,13.66
2022-11-05T11:52:23.831Z,13.64
2022-11-05T11:53:23.817Z,13.66
2022-11-05T11:54:28.545Z,13.64
2022-11-05T11:55:23.789Z,13.66
2022-11-05T11:56:23.780Z,13.64
2022-11-05T11:57:23.764Z,13.62
2022-11-05T11:58:23.752Z,13.66
2022-11-05T11:59:40.503Z,13.66
2022-11-05T12:00:24.764Z,13.66
2022-11-05T12:01:23.791Z,13.66
2022-11-05T12:02:23.881Z,13.68
2022-11-05T12:03:23.792Z,13.66
2022-11-05T12:04:23.674Z,13.68
2022-11-05T12:05:23.659Z,13.68
2022-11-05T12:06:23.651Z,13.70
2022-11-05T12:07:23.634Z,13.70
2022-11-05T12:08:23.623Z,13.72
2022-11-05T12:09:23.608Z,13.73
2022-11-05T12:10:23.596Z,13.72
2022-11-05T12:11:23.582Z,13.72
2022-11-05T12:12:23.569Z,13.73
2022-11-05T12:13:23.555Z,13.73
2022-11-05T12:14:23.544Z,13.73
2022-11-05T12:15:23.531Z,13.72
2022-11-05T12:16:23.519Z,13.70
2022-11-05T12:17:23.502Z,13.70
2022-11-05T12:18:23.492Z,13.70
2022-11-05T12:19:23.500Z,13.69
2022-11-05T12:20:23.467Z,13.69
2022-11-05T12:21:47.772Z,13.69
2022-11-05T12:22:24.493Z,13.69
2022-11-05T12:23:23.425Z,13.66
2022-11-05T12:24:23.413Z,13.68
2022-11-05T12:25:23.399Z,13.68
2022-11-05T12:26:23.387Z,13.68
2022-11-05T12:27:23.371Z,13.68
2022-11-05T12:28:23.362Z,13.66
2022-11-05T12:29:23.353Z,13.66
2022-11-05T12:30:23.338Z,13.68
2022-11-05T12:31:23.322Z,13.66
2022-11-05T12:32:23.362Z,13.68
2022-11-05T12:33:23.295Z,13.68
2022-11-05T12:34:23.284Z,13.69
2022-11-05T12:35:23.618Z,13.69
2022-11-05T12:36:23.258Z,13.69
2022-11-05T12:37:23.243Z,13.68
2022-11-05T12:38:23.232Z,13.68
2022-11-05T12:39:23.218Z,13.68
2022-11-05T12:40:23.206Z,13.68
2022-11-05T12:41:23.193Z,13.68
2022-11-05T12:42:23.179Z,13.66
2022-11-05T12:43:23.167Z,13.69
2022-11-05T12:44:23.166Z,13.66
2022-11-05T12:45:23.138Z,13.66
2022-11-05T12:46:23.130Z,13.68
2022-11-05T12:47:23.110Z,13.68
2022-11-05T12:48:28.242Z,13.68
2022-11-05T12:49:24.129Z,13.66
2022-11-05T12:50:23.073Z,13.68
2022-11-05T12:51:23.176Z,13.66
2022-11-05T12:52:23.049Z,13.69